Kohat, Pakistan
Current Conditions -  °F | °C
As of 4:00 PM on Saturday 22 Nov 2014 (Local Time) from OPPS Reporting Station
Haze Haze  
Wind Chill: 70°   Ceiling: Unl
Heat Index: 70°   Visibility: 1.8mi
Dew Point: 43°   Wind: 0mph
Humidity: 38%   Direction: NA
Pressure: NA   Gusts: NA
Location:  33.6°N, 71.44°E
Report Text: OPPS 221100Z 00000KT 3000 HZ FEW250 21/06 Q1013.1
Loading
Personal Weather Stations






























Interactive Weather Map New forecast layout! Learn more

10-Day Weather Forecast

Advertisements
Track Severe Weather on mobile